Time;durP1;ratioP1;P1;durP2;ratioP2;P2;SDS_P1;SDS_P2;PMS_P1;PMS_P2;Temp;Humidity;BMP_temperature;BMP_pressure;BME280_temperature;BME280_humidity;BME280_pressure;Samples;Min_cycle;Max_cycle;Signal;HPM_P1;HPM_P2
2023/09/15 00:02:18;;;;;;;16.05;13.13;;;;;;;-146.27;74.24;81948.31;5034330;28;20028;-65
2023/09/15 00:04:46;;;;;;;19.67;13.32;;;;;;;-146.27;74.43;81930.22;5043248;28;20091;-67
2023/09/15 00:07:14;;;;;;;20.13;14.25;;;;;;;-146.27;74.66;81982.44;5040800;28;20111;-66
2023/09/15 00:09:39;;;;;;;19.30;13.63;;;;;;;-146.27;74.75;82006.53;5039314;28;20029;-66
2023/09/15 00:12:08;;;;;;;22.65;14.63;;;;;;;-146.27;75.01;81992.50;5044990;28;20043;-66
2023/09/15 00:14:38;;;;;;;20.08;14.85;;;;;;;-146.27;75.24;82002.53;5034301;28;20045;-66
2023/09/15 00:17:03;;;;;;;18.00;14.18;;;;;;;-146.27;75.30;81994.50;5038632;28;20460;-67
2023/09/15 00:19:29;;;;;;;23.95;15.15;;;;;;;-146.27;75.92;82018.59;5039244;28;20120;-66
2023/09/15 00:21:55;;;;;;;22.23;14.93;;;;;;;-146.27;75.15;81970.41;5044164;28;20024;-66
2023/09/15 00:24:21;;;;;;;24.25;15.95;;;;;;;-146.27;76.27;82042.69;5040134;28;20056;-66
2023/09/15 00:26:48;;;;;;;21.40;15.00;;;;;;;-146.27;75.73;82022.63;5048078;28;20055;-66
2023/09/15 00:29:14;;;;;;;22.13;15.88;;;;;;;-146.27;75.74;82050.75;5044696;28;20028;-67
2023/09/15 00:31:41;;;;;;;22.13;14.38;;;;;;;-146.27;75.13;82016.59;5034581;28;20029;-68
2023/09/15 00:34:06;;;;;;;27.58;15.45;;;;;;;-146.27;75.34;81986.47;5030447;28;20029;-68
2023/09/15 00:36:32;;;;;;;23.65;15.43;;;;;;;-146.27;75.88;82012.56;5045566;28;20136;-66
2023/09/15 00:38:58;;;;;;;23.52;15.40;;;;;;;-146.27;75.25;82036.69;5039442;28;20025;-67
2023/09/15 00:41:23;;;;;;;23.27;16.08;;;;;;;-146.27;76.18;82032.66;5041110;28;20039;-67
2023/09/15 00:43:49;;;;;;;20.52;15.65;;;;;;;-146.27;76.11;82054.75;5041074;28;20017;-67
2023/09/15 00:46:14;;;;;;;18.75;15.80;;;;;;;-146.27;75.95;82072.84;5045288;28;20021;-67
2023/09/15 00:48:41;;;;;;;20.75;15.93;;;;;;;-146.27;75.94;82088.91;5047424;28;20614;-67
2023/09/15 00:51:07;;;;;;;22.02;15.70;;;;;;;-146.27;75.89;82084.88;5029796;28;20084;-66
2023/09/15 00:53:35;;;;;;;21.02;15.95;;;;;;;-146.27;76.77;82119.03;5039705;28;20098;-67
2023/09/15 00:56:03;;;;;;;23.33;16.27;;;;;;;-146.27;76.69;82125.06;5035900;28;20021;-67
2023/09/15 00:58:30;;;;;;;21.38;15.93;;;;;;;-146.27;77.49;82143.13;5045827;28;20043;-66
2023/09/15 01:00:55;;;;;;;23.27;16.77;;;;;;;-146.27;77.40;82117.03;5045046;28;20066;-66
2023/09/15 01:03:22;;;;;;;20.33;15.82;;;;;;;-146.27;77.53;82127.06;5045532;28;20096;-66
2023/09/15 01:05:48;;;;;;;19.70;16.15;;;;;;;-146.27;76.96;82147.16;5043428;28;20502;-67
2023/09/15 01:08:13;;;;;;;23.40;17.20;;;;;;;-146.27;77.01;82183.31;5036083;28;20087;-67
2023/09/15 01:10:39;;;;;;;22.73;16.95;;;;;;;-146.27;76.91;82195.38;5036632;28;20129;-67
2023/09/15 01:13:05;;;;;;;22.52;17.70;;;;;;;-146.27;77.08;82145.16;5046059;28;20515;-67
2023/09/15 01:15:54;;;;;;;23.67;16.95;;;;;;;-146.27;77.01;82179.28;5041815;28;20045;-67
2023/09/15 01:18:28;;;;;;;24.20;17.05;;;;;;;-146.27;77.44;82157.19;5028628;28;20495;-67
2023/09/15 01:21:25;;;;;;;24.67;17.45;;;;;;;-146.27;77.26;82179.28;5028975;28;20359;-67
2023/09/15 01:24:25;;;;;;;23.77;17.85;;;;;;;-146.27;77.26;82179.28;5032461;28;20047;-66
2023/09/15 01:27:12;;;;;;;24.15;19.10;;;;;;;-146.27;78.19;82213.44;5029749;28;20029;-65
2023/09/15 01:29:53;;;;;;;28.20;18.15;;;;;;;-146.27;77.48;82231.53;5042649;28;20068;-66
2023/09/15 01:32:20;;;;;;;23.88;18.08;;;;;;;-146.27;77.52;82255.63;5039309;28;20029;-66
2023/09/15 01:34:48;;;;;;;24.05;19.85;;;;;;;-146.27;77.88;82211.44;5046272;28;20676;-66
2023/09/15 01:37:13;;;;;;;28.55;19.40;;;;;;;-146.27;78.19;82201.38;5030109;28;20037;-65
2023/09/15 01:39:38;;;;;;;32.67;21.05;;;;;;;-146.27;77.73;82173.28;5030996;28;20106;-64
2023/09/15 01:42:04;;;;;;;28.67;19.83;;;;;;;-146.27;77.52;82175.28;5043374;28;20120;-67
2023/09/15 01:44:29;;;;;;;25.70;18.83;;;;;;;-146.27;77.56;82191.34;5046360;28;20093;-66
2023/09/15 01:46:55;;;;;;;23.05;18.95;;;;;;;-146.27;77.29;82211.44;5044451;28;20024;-66
2023/09/15 01:49:21;;;;;;;27.35;20.20;;;;;;;-146.27;77.83;82171.25;5042657;28;20109;-66
2023/09/15 01:51:48;;;;;;;25.92;19.35;;;;;;;-146.27;76.75;82175.28;5044142;28;20560;-68
2023/09/15 01:54:15;;;;;;;26.05;19.08;;;;;;;-146.27;76.74;82205.41;5047922;28;20024;-66
2023/09/15 01:56:41;;;;;;;23.67;19.10;;;;;;;-146.27;77.28;82201.38;5039604;28;20025;-67
2023/09/15 01:59:06;;;;;;;27.92;19.23;;;;;;;-146.27;76.95;82233.53;5039202;28;20037;-65
2023/09/15 02:01:32;;;;;;;28.02;20.10;;;;;;;-146.27;76.83;82243.56;5042518;28;20064;-66
2023/09/15 02:03:57;;;;;;;26.83;20.00;;;;;;;-146.27;77.49;82249.59;5046450;28;20021;-67
2023/09/15 02:06:22;;;;;;;27.63;20.48;;;;;;;-146.27;77.75;82259.66;5063078;28;20047;-66
2023/09/15 02:08:48;;;;;;;26.52;20.50;;;;;;;-146.27;78.54;82293.78;5045536;28;20026;-66
2023/09/15 02:11:14;;;;;;;26.92;19.42;;;;;;;-146.27;77.75;82275.72;5035529;28;20107;-66
2023/09/15 02:13:40;;;;;;;31.63;24.17;;;;;;;-146.27;79.02;82285.75;5033743;28;20028;-66
2023/09/15 02:16:06;;;;;;;29.05;21.38;;;;;;;-146.27;77.83;82299.81;5044191;28;20051;-66
2023/09/15 02:18:31;;;;;;;30.38;21.15;;;;;;;-146.27;78.63;82305.84;5037780;28;20478;-65
2023/09/15 02:20:57;;;;;;;32.65;21.33;;;;;;;-146.27;77.97;82299.81;5036860;28;20108;-65
2023/09/15 02:23:23;;;;;;;28.00;21.73;;;;;;;-146.27;78.35;82291.78;5041981;28;20100;-65
2023/09/15 02:25:49;;;;;;;28.00;19.92;;;;;;;-146.27;78.53;82307.84;5036220;28;20039;-65
2023/09/15 02:28:15;;;;;;;28.10;20.35;;;;;;;-146.27;78.56;82317.91;5035649;28;20033;-65
2023/09/15 02:30:40;;;;;;;28.60;20.90;;;;;;;-146.27;78.16;82340.00;5032511;28;20102;-66
2023/09/15 02:33:06;;;;;;;29.52;21.35;;;;;;;-146.27;77.86;82297.81;5038268;28;20087;-66
2023/09/15 02:35:31;;;;;;;30.23;20.83;;;;;;;-146.27;78.41;82311.88;5036540;28;20029;-68
2023/09/15 02:37:56;;;;;;;24.33;18.73;;;;;;;-146.27;77.66;82368.13;5042650;28;20074;-66
2023/09/15 02:40:25;;;;;;;29.20;19.98;;;;;;;-146.27;78.51;82366.09;5042009;28;20020;-66
2023/09/15 02:42:50;;;;;;;27.42;20.35;;;;;;;-146.27;78.65;82348.03;5042480;28;20128;-66
2023/09/15 02:45:16;;;;;;;28.95;20.95;;;;;;;-146.27;78.49;82388.22;5044003;28;20560;-66
2023/09/15 02:47:42;;;;;;;26.02;20.13;;;;;;;-146.27;78.42;82390.22;5042544;28;20071;-66
2023/09/15 02:50:07;;;;;;;27.33;20.77;;;;;;;-146.27;79.05;82476.59;5041574;28;20509;-66
2023/09/15 02:52:33;;;;;;;25.05;20.65;;;;;;;-146.27;78.85;82384.19;5044806;28;20219;-67
2023/09/15 02:54:59;;;;;;;33.17;22.10;;;;;;;-146.27;79.06;82386.19;5046254;28;20029;-66
2023/09/15 02:57:25;;;;;;;41.70;21.33;;;;;;;-146.27;79.27;82426.38;5048464;28;20369;-65
2023/09/15 02:59:52;;;;;;;28.25;20.33;;;;;;;-146.27;78.85;82408.28;5042319;28;20055;-66
2023/09/15 03:02:20;;;;;;;29.08;19.35;;;;;;;-146.27;78.99;82414.31;5043833;28;20731;-66
2023/09/15 03:04:48;;;;;;;28.23;20.65;;;;;;;-146.27;79.47;82410.31;5040660;28;20029;-66
2023/09/15 03:07:15;;;;;;;25.00;19.15;;;;;;;-146.27;78.90;82404.28;5046301;28;20025;-66
2023/09/15 03:09:40;;;;;;;27.13;20.63;;;;;;;-146.27;78.75;82422.34;5040769;28;20116;-65
2023/09/15 03:12:05;;;;;;;26.80;20.23;;;;;;;-146.27;78.68;82444.44;5045572;28;20112;-66
2023/09/15 03:14:31;;;;;;;27.20;20.17;;;;;;;-146.27;78.25;82396.25;5042227;28;20037;-65
2023/09/15 03:16:57;;;;;;;26.48;19.33;;;;;;;-146.27;78.33;82420.34;5038094;28;20021;-65
2023/09/15 03:19:24;;;;;;;30.02;20.48;;;;;;;-146.27;78.39;82412.31;5033448;28;20072;-65
2023/09/15 03:21:49;;;;;;;31.35;20.67;;;;;;;-146.27;78.52;82434.41;5046243;28;20029;-66
2023/09/15 03:24:15;;;;;;;28.15;19.65;;;;;;;-146.27;78.51;82434.41;5037633;28;20075;-66
2023/09/15 03:26:40;;;;;;;29.08;19.38;;;;;;;-146.27;79.15;82442.44;5047630;28;20021;-66
2023/09/15 03:29:06;;;;;;;29.33;20.00;;;;;;;-146.27;79.12;82444.44;5041481;28;20052;-65
2023/09/15 03:31:31;;;;;;;27.48;19.25;;;;;;;-146.27;78.40;82452.47;5050716;28;20021;-66
2023/09/15 03:33:57;;;;;;;25.27;19.10;;;;;;;-146.27;78.84;82444.44;5042121;28;20488;-66
2023/09/15 03:36:23;;;;;;;26.27;19.27;;;;;;;-146.27;78.94;82440.44;5045189;28;20111;-65
2023/09/15 03:38:48;;;;;;;29.38;19.92;;;;;;;-146.27;79.07;82438.44;5049416;28;20032;-65
2023/09/15 03:41:14;;;;;;;25.73;19.17;;;;;;;-146.27;79.06;82432.41;5049483;28;20517;-65
2023/09/15 03:43:39;;;;;;;27.17;19.67;;;;;;;-146.27;78.79;82444.44;5046516;28;20025;-65
2023/09/15 03:46:05;;;;;;;28.13;19.00;;;;;;;-146.27;78.52;82378.16;5046694;28;20081;-65
2023/09/15 03:48:31;;;;;;;26.27;19.48;;;;;;;-146.27;78.95;82430.38;5046361;28;20032;-66
2023/09/15 03:50:56;;;;;;;27.60;19.35;;;;;;;-146.27;79.39;82416.31;5046713;28;20091;-66
2023/09/15 03:53:22;;;;;;;27.75;18.65;;;;;;;-146.27;78.78;82472.56;5045929;28;20868;-66
2023/09/15 03:55:49;;;;;;;26.55;19.30;;;;;;;-146.27;78.69;82426.38;5037653;28;20025;-66
2023/09/15 03:58:15;;;;;;;28.10;19.70;;;;;;;-146.27;78.63;82426.38;5043414;28;20032;-66
2023/09/15 04:00:40;;;;;;;29.65;19.60;;;;;;;-146.27;78.65;82452.47;5034824;28;20021;-67
2023/09/15 04:03:06;;;;;;;28.60;19.40;;;;;;;-146.27;78.65;82466.56;5045212;28;20024;-67
2023/09/15 04:05:32;;;;;;;25.55;19.60;;;;;;;-146.27;79.74;82476.59;5041013;28;20473;-66
2023/09/15 04:07:57;;;;;;;27.17;19.02;;;;;;;-146.27;78.81;82460.53;5044960;28;20451;-67
2023/09/15 04:10:23;;;;;;;24.15;18.52;;;;;;;-146.27;78.89;82434.41;5047641;28;20485;-67
2023/09/15 04:12:48;;;;;;;24.60;18.95;;;;;;;-146.27;78.35;82486.63;5042260;28;20417;-67
2023/09/15 04:15:15;;;;;;;23.67;19.00;;;;;;;-146.27;80.02;82514.75;5033292;28;20046;-67
2023/09/15 04:17:41;;;;;;;32.45;20.33;;;;;;;-146.27;79.56;82528.81;5042430;28;20070;-67
2023/09/15 04:20:09;;;;;;;29.60;19.45;;;;;;;-146.27;80.43;82542.88;5047138;28;20039;-66
2023/09/15 04:22:37;;;;;;;27.05;18.88;;;;;;;-146.27;79.51;82508.72;5033727;28;20377;-66
2023/09/15 04:25:02;;;;;;;30.42;20.25;;;;;;;-146.27;79.27;82554.94;5036033;28;20107;-67
2023/09/15 04:27:28;;;;;;;29.88;19.17;;;;;;;-146.27;80.02;82573.00;5036091;28;20779;-66
2023/09/15 04:29:56;;;;;;;27.88;19.45;;;;;;;-146.27;79.27;82560.97;5043270;28;20060;-66
2023/09/15 04:32:22;;;;;;;24.63;17.75;;;;;;;-146.27;79.44;82546.91;5044325;28;20063;-66
2023/09/15 04:34:49;;;;;;;27.83;20.15;;;;;;;-146.27;79.51;82554.94;5040955;28;20740;-67
2023/09/15 04:37:14;;;;;;;29.65;21.13;;;;;;;-146.27;79.61;82556.94;5045081;28;20028;-67
2023/09/15 04:39:40;;;;;;;25.92;19.92;;;;;;;-146.27;79.91;82556.94;5050963;28;20120;-65
2023/09/15 04:42:05;;;;;;;27.00;19.90;;;;;;;-146.27;79.28;82528.81;5042795;28;20017;-68
2023/09/15 04:44:31;;;;;;;30.25;20.48;;;;;;;-146.27;79.63;82530.84;5039524;28;20469;-67
2023/09/15 04:46:56;;;;;;;29.02;20.23;;;;;;;-146.27;79.47;82542.88;5040756;28;20453;-67
2023/09/15 04:49:22;;;;;;;30.00;20.55;;;;;;;-146.27;79.78;82524.81;5043703;28;20613;-67
2023/09/15 04:51:47;;;;;;;27.80;19.77;;;;;;;-146.27;79.66;82552.94;5048292;28;20370;-65
2023/09/15 04:54:12;;;;;;;29.25;20.45;;;;;;;-146.27;79.70;82573.00;5037769;28;20021;-65
2023/09/15 04:56:38;;;;;;;32.10;22.65;;;;;;;-146.27;80.15;82562.97;5045637;28;20043;-66
2023/09/15 04:59:03;;;;;;;34.47;22.80;;;;;;;-146.27;79.72;82544.91;5039740;28;20073;-67
2023/09/15 05:01:29;;;;;;;33.60;22.50;;;;;;;-146.27;80.72;82569.00;5043222;28;20103;-67
2023/09/15 05:03:54;;;;;;;30.95;21.17;;;;;;;-146.27;80.00;82585.06;5038912;28;20025;-67
2023/09/15 05:06:20;;;;;;;32.85;22.45;;;;;;;-146.27;79.86;82544.91;5039663;28;20489;-66
2023/09/15 05:08:45;;;;;;;32.72;22.45;;;;;;;-146.27;80.32;82540.88;5033107;28;20025;-66
2023/09/15 05:11:11;;;;;;;34.60;23.90;;;;;;;-146.27;79.93;82552.94;5032184;28;20052;-66
2023/09/15 05:13:36;;;;;;;28.70;21.10;;;;;;;-146.27;79.85;82597.13;5032506;28;20029;-66
2023/09/15 05:16:03;;;;;;;30.85;21.35;;;;;;;-146.27;79.67;82583.06;5039781;28;20048;-67
2023/09/15 05:18:30;;;;;;;35.13;22.20;;;;;;;-146.27;80.15;82591.09;5042985;28;20409;-66
2023/09/15 05:20:56;;;;;;;31.40;21.20;;;;;;;-146.27;79.75;82567.00;5037373;28;20020;-68
2023/09/15 05:23:21;;;;;;;29.00;21.52;;;;;;;-146.27;79.91;82593.09;5053333;28;20032;-68
2023/09/15 05:25:51;;;;;;;31.35;21.23;;;;;;;-146.27;80.90;82556.94;5043145;28;20497;-68
2023/09/15 05:28:16;;;;;;;37.00;23.25;;;;;;;-146.27;80.15;82569.00;5036644;28;20467;-67
2023/09/15 05:30:41;;;;;;;29.13;20.92;;;;;;;-146.27;80.64;82585.06;5045913;28;20111;-67
2023/09/15 05:33:08;;;;;;;31.10;21.90;;;;;;;-146.27;80.02;82569.00;5043381;28;20385;-67
2023/09/15 05:35:35;;;;;;;31.83;21.70;;;;;;;-146.27;80.06;82564.97;5034088;28;20029;-66
2023/09/15 05:38:00;;;;;;;35.55;22.45;;;;;;;-146.27;80.33;82556.94;5046032;28;20388;-66
2023/09/15 05:40:25;;;;;;;31.48;21.17;;;;;;;-146.27;79.85;82577.03;5039119;28;20029;-67
2023/09/15 05:42:53;;;;;;;31.67;21.40;;;;;;;-146.27;80.14;82542.88;5053761;28;20579;-66
2023/09/15 05:45:18;;;;;;;34.65;22.15;;;;;;;-146.27;80.94;82482.63;5066374;28;20032;-66
2023/09/15 05:47:44;;;;;;;31.48;22.77;;;;;;;-146.27;80.50;82564.97;5036990;28;20044;-66
2023/09/15 05:50:09;;;;;;;31.55;21.60;;;;;;;-146.27;80.44;82526.81;5050953;28;20033;-66
2023/09/15 05:52:35;;;;;;;45.20;21.85;;;;;;;-146.27;80.30;82506.72;5052242;28;20037;-66
2023/09/15 05:55:00;;;;;;;27.63;19.90;;;;;;;-146.27;79.88;82478.59;5052819;28;20558;-66
2023/09/15 05:57:25;;;;;;;29.30;21.05;;;;;;;-146.27;80.04;82480.59;5048798;28;20063;-66
2023/09/15 05:59:50;;;;;;;28.67;20.40;;;;;;;-146.27;80.03;82468.56;5042712;28;20025;-66
2023/09/15 06:02:16;;;;;;;31.70;22.25;;;;;;;-146.27;79.57;82480.59;5032428;28;20026;-66
2023/09/15 06:04:43;;;;;;;30.30;21.30;;;;;;;-146.27;80.04;82428.38;5047327;28;20789;-67
2023/09/15 06:07:08;;;;;;;34.60;20.70;;;;;;;-146.27;79.58;82404.28;5042434;28;20136;-68
2023/09/15 06:09:33;;;;;;;33.58;21.27;;;;;;;-146.27;79.25;82370.13;5051071;28;20111;-68
2023/09/15 06:11:59;;;;;;;38.97;20.73;;;;;;;-146.27;79.23;82392.22;5041775;28;20112;-67
2023/09/15 06:14:24;;;;;;;33.05;20.13;;;;;;;-146.27;78.83;82380.16;5046045;28;20040;-67
2023/09/15 06:16:50;;;;;;;29.45;19.60;;;;;;;-146.27;79.01;82362.09;5052651;28;20413;-68
2023/09/15 06:19:15;;;;;;;29.13;18.98;;;;;;;-146.27;78.17;82346.03;5033901;28;20079;-68
2023/09/15 06:21:40;;;;;;;26.67;19.58;;;;;;;-146.27;78.30;82370.13;5051126;28;20033;-68
2023/09/15 06:24:06;;;;;;;29.77;19.10;;;;;;;-146.27;78.58;82325.94;5049736;28;20029;-67
2023/09/15 06:26:33;;;;;;;25.98;18.10;;;;;;;-146.27;78.10;82277.72;5051545;28;20680;-67
2023/09/15 06:28:58;;;;;;;31.48;18.67;;;;;;;-146.27;78.38;82315.88;5053055;28;20029;-68
2023/09/15 06:31:24;;;;;;;24.48;17.42;;;;;;;-146.27;78.58;82348.03;5051117;28;20118;-66
2023/09/15 06:33:49;;;;;;;26.75;18.27;;;;;;;-146.27;78.26;82307.84;5050919;28;20021;-65
2023/09/15 06:36:15;;;;;;;28.48;18.38;;;;;;;-146.27;78.31;82283.75;5046730;28;20086;-65
2023/09/15 06:38:41;;;;;;;28.75;18.33;;;;;;;-146.27;77.86;82271.69;5032173;28;20057;-65
2023/09/15 06:41:06;;;;;;;29.52;17.90;;;;;;;-146.27;77.57;82279.72;5038725;28;20029;-64
2023/09/15 06:43:31;;;;;;;26.13;17.58;;;;;;;-146.27;77.18;82259.66;5035612;28;20033;-66
2023/09/15 06:45:57;;;;;;;27.77;17.35;;;;;;;-146.27;77.29;82251.59;5032182;28;20044;-65
2023/09/15 06:48:23;;;;;;;27.63;17.33;;;;;;;-146.27;76.84;82211.44;5033207;28;20580;-65
2023/09/15 06:50:48;;;;;;;24.27;16.55;;;;;;;-146.27;77.04;82189.34;5048633;28;20029;-66
2023/09/15 06:53:13;;;;;;;23.77;16.63;;;;;;;-146.27;76.88;82223.47;5051110;28;20049;-67
2023/09/15 06:55:39;;;;;;;23.17;15.95;;;;;;;-146.27;76.79;82187.31;5050270;28;20056;-66
2023/09/15 06:58:04;;;;;;;23.15;17.17;;;;;;;-146.27;76.46;82201.38;5049906;28;20032;-66
2023/09/15 07:00:30;;;;;;;25.85;16.92;;;;;;;-146.27;76.58;82193.34;5050735;28;20037;-66
2023/09/15 07:02:55;;;;;;;22.67;15.98;;;;;;;-146.27;76.48;82189.34;5050727;28;20042;-66
2023/09/15 07:05:20;;;;;;;23.40;16.13;;;;;;;-146.27;76.64;82211.44;5051461;28;20396;-67
2023/09/15 07:07:46;;;;;;;20.60;15.93;;;;;;;-146.27;76.74;82153.19;5051605;28;20025;-67
2023/09/15 07:10:11;;;;;;;26.73;15.52;;;;;;;-146.27;76.40;82139.13;5050457;28;20029;-67
2023/09/15 07:12:37;;;;;;;22.33;14.95;;;;;;;-146.27;76.24;82135.09;5051580;28;20028;-67
2023/09/15 07:15:06;;;;;;;20.45;14.48;;;;;;;-146.27;76.27;82127.06;5051175;28;20131;-67
2023/09/15 07:17:31;;;;;;;22.50;13.75;;;;;;;-146.27;75.83;82098.94;5050179;28;20469;-67
2023/09/15 07:19:57;;;;;;;22.40;14.65;;;;;;;-146.27;75.73;82102.97;5047634;28;20052;-67
2023/09/15 07:22:22;;;;;;;18.98;13.07;;;;;;;-146.27;75.50;82080.88;5033946;28;20017;-67
2023/09/15 07:24:48;;;;;;;20.77;13.80;;;;;;;-146.27;75.57;82090.91;5051306;28;20032;-67
2023/09/15 07:27:13;;;;;;;21.13;14.07;;;;;;;-146.27;75.21;82070.81;5044051;28;20040;-65
2023/09/15 07:29:39;;;;;;;17.52;13.75;;;;;;;-146.27;75.26;82022.63;5040399;28;20468;-65
2023/09/15 07:32:05;;;;;;;20.63;13.15;;;;;;;-146.27;74.78;82032.66;5037011;28;20036;-66
2023/09/15 07:34:31;;;;;;;19.88;13.40;;;;;;;-146.27;74.71;82018.59;5040633;28;20032;-66
2023/09/15 07:36:56;;;;;;;20.05;13.13;;;;;;;-146.27;74.11;82002.53;5034001;28;20520;-66
2023/09/15 07:39:21;;;;;;;17.05;13.30;;;;;;;-146.27;75.26;82000.53;5050146;28;20025;-66
2023/09/15 07:41:47;;;;;;;17.83;13.15;;;;;;;-146.27;74.01;81994.50;5050226;28;20036;-66
2023/09/15 07:44:13;;;;;;;19.58;12.23;;;;;;;-146.27;73.60;81954.31;5046688;28;20021;-65
2023/09/15 07:46:39;;;;;;;14.43;10.48;;;;;;;-146.27;73.42;81958.34;5050232;28;20028;-65
2023/09/15 07:49:05;;;;;;;17.35;11.65;;;;;;;-146.27;73.62;81912.16;5050318;28;20495;-66
2023/09/15 07:51:31;;;;;;;21.27;11.98;;;;;;;-146.27;73.29;81906.13;5046715;28;20111;-66
2023/09/15 07:53:56;;;;;;;16.02;10.90;;;;;;;-146.27;73.09;81904.13;5047003;28;20028;-66
2023/09/15 07:56:22;;;;;;;18.08;10.65;;;;;;;-146.27;72.70;81831.81;5042014;28;20025;-65
2023/09/15 07:58:47;;;;;;;17.40;10.95;;;;;;;-146.27;72.14;81884.03;5031622;28;20038;-66
2023/09/15 08:01:13;;;;;;;14.80;11.32;;;;;;;-146.27;72.10;81811.72;5036054;28;20029;-65
2023/09/15 08:03:39;;;;;;;12.80;10.52;;;;;;;-146.27;72.29;81833.81;5034246;28;20074;-66
2023/09/15 08:06:06;;;;;;;19.70;11.27;;;;;;;-146.27;71.54;81837.81;5050289;28;20036;-68
2023/09/15 08:08:31;;;;;;;16.05;10.98;;;;;;;-146.27;71.28;81787.63;5050609;28;20064;-66
2023/09/15 08:10:57;;;;;;;15.05;10.60;;;;;;;-146.27;71.20;81767.53;5050279;28;20029;-66
2023/09/15 08:13:22;;;;;;;17.20;11.52;;;;;;;-146.27;72.08;81723.34;5049033;28;20025;-67
2023/09/15 08:15:51;;;;;;;15.20;10.80;;;;;;;-146.27;72.25;81825.78;5049446;28;20040;-64
2023/09/15 08:18:17;;;;;;;16.98;10.80;;;;;;;-146.27;72.51;81713.31;5034791;28;20029;-66
2023/09/15 08:20:43;;;;;;;16.40;11.20;;;;;;;-146.27;72.46;81729.38;5048824;28;20036;-64
2023/09/15 08:23:08;;;;;;;15.38;10.70;;;;;;;-146.27;71.96;81685.19;5049850;28;20524;-67
2023/09/15 08:25:33;;;;;;;15.07;9.50;;;;;;;-146.27;71.55;81657.06;5037722;28;20071;-65
2023/09/15 08:28:00;;;;;;;19.58;10.13;;;;;;;-146.27;70.01;81645.00;5036201;28;20043;-66
2023/09/15 08:30:25;;;;;;;17.20;9.90;;;;;;;-146.27;70.09;81572.72;5050219;28;20039;-66
2023/09/15 08:32:51;;;;;;;15.18;8.52;;;;;;;-146.27;70.89;81524.50;5046085;28;20026;-66
2023/09/15 08:35:16;;;;;;;13.77;9.32;;;;;;;-146.27;70.05;81542.59;5049622;28;20071;-66
2023/09/15 08:37:41;;;;;;;14.73;10.18;;;;;;;-146.27;70.23;81520.50;5050281;28;20071;-66
2023/09/15 08:40:08;;;;;;;15.05;9.02;;;;;;;-146.27;69.28;81532.53;5041892;28;20040;-65
2023/09/15 08:42:33;;;;;;;16.40;8.57;;;;;;;-146.27;68.83;81434.13;5048965;28;20029;-66
2023/09/15 08:45:01;;;;;;;16.25;8.02;;;;;;;-146.27;68.88;81426.09;5048822;28;20024;-66
2023/09/15 08:47:31;;;;;;;13.35;8.00;;;;;;;-146.27;68.27;81371.88;5037433;28;20036;-66
2023/09/15 08:49:57;;;;;;;11.23;7.25;;;;;;;-146.27;69.10;81373.88;5039940;28;20055;-66
2023/09/15 08:52:22;;;;;;;12.27;8.10;;;;;;;-146.27;67.17;81343.75;5039717;28;20056;-65
2023/09/15 08:54:51;;;;;;;11.50;7.28;;;;;;;-146.27;66.36;81273.47;5039927;28;20036;-66
2023/09/15 08:57:17;;;;;;;12.75;8.40;;;;;;;-146.27;65.95;81227.28;5029290;28;20025;-66
2023/09/15 08:59:43;;;;;;;10.80;7.13;;;;;;;-146.27;65.10;81199.16;5030518;28;20565;-64
2023/09/15 09:02:11;;;;;;;11.20;7.15;;;;;;;-146.27;63.18;81155.00;5044568;28;20025;-66
2023/09/15 09:04:37;;;;;;;12.48;7.40;;;;;;;-146.27;62.86;81163.03;5047690;28;20037;-66
2023/09/15 09:07:04;;;;;;;17.17;7.50;;;;;;;-146.27;63.67;81078.69;5042961;28;20505;-66
2023/09/15 09:09:30;;;;;;;12.68;7.78;;;;;;;-146.27;63.65;80996.34;5042174;28;20269;-66
2023/09/15 09:11:56;;;;;;;13.18;7.63;;;;;;;-146.27;61.49;80938.09;5049685;28;20075;-67
2023/09/15 09:14:21;;;;;;;10.70;6.82;;;;;;;-146.27;60.66;80899.97;5048328;28;20477;-68
2023/09/15 09:16:47;;;;;;;9.23;6.93;;;;;;;-146.27;59.70;80877.88;5045474;28;20064;-66
2023/09/15 09:19:12;;;;;;;10.57;6.68;;;;;;;-146.27;58.73;80805.56;5039476;28;20052;-65
2023/09/15 09:21:38;;;;;;;12.88;8.23;;;;;;;-146.27;59.42;80747.34;5030417;28;20029;-65
2023/09/15 09:24:04;;;;;;;11.52;7.93;;;;;;;-146.27;62.66;80705.19;5049140;28;20090;-65
2023/09/15 09:26:30;;;;;;;13.70;8.88;;;;;;;-146.27;62.04;80636.91;5031640;28;20036;-65
2023/09/15 09:28:59;;;;;;;14.63;8.35;;;;;;;-146.27;60.37;80602.78;5040486;28;20077;-66
2023/09/15 09:31:27;;;;;;;14.63;8.77;;;;;;;-146.27;61.04;80568.63;5044155;28;20044;-66
2023/09/15 09:33:54;;;;;;;12.15;8.93;;;;;;;-146.27;60.63;80634.91;5046189;28;20033;-67
2023/09/15 09:36:20;;;;;;;18.75;9.27;;;;;;;-146.27;59.22;80576.66;5045778;28;22045;-65
2023/09/15 09:38:47;;;;;;;12.88;8.65;;;;;;;-146.27;57.39;80556.59;5036726;28;20036;-65
2023/09/15 09:41:13;;;;;;;13.55;7.57;;;;;;;-146.27;57.88;80448.16;5040871;28;20033;-64
2023/09/15 09:43:40;;;;;;;16.27;7.15;;;;;;;-146.27;59.96;80428.09;5045293;28;20013;-66
2023/09/15 09:46:06;;;;;;;9.00;6.88;;;;;;;-146.27;59.87;80327.69;5033918;28;20033;-66
2023/09/15 09:48:36;;;;;;;10.38;7.65;;;;;;;-146.27;53.64;80371.88;5031457;28;20116;-65
2023/09/15 09:51:03;;;;;;;10.77;7.25;;;;;;;-146.27;55.64;80343.75;5029370;28;20782;-66
2023/09/15 09:53:29;;;;;;;10.90;7.78;;;;;;;-146.27;52.98;80257.44;5052793;28;20029;-67
2023/09/15 09:55:56;;;;;;;9.43;7.30;;;;;;;-146.27;51.02;80249.41;5056330;28;20469;-67
2023/09/15 09:58:23;;;;;;;9.35;7.35;;;;;;;-146.27;51.54;80203.22;5035653;28;20109;-64
2023/09/15 10:00:51;;;;;;;9.88;7.53;;;;;;;-146.27;52.05;80175.13;5034122;28;20067;-65
2023/09/15 10:03:17;;;;;;;13.95;7.63;;;;;;;-146.27;49.52;80179.13;5052222;28;20021;-65
2023/09/15 10:05:43;;;;;;;13.27;8.65;;;;;;;-146.27;50.52;80143.00;5040560;28;20037;-65
2023/09/15 10:08:09;;;;;;;14.50;8.70;;;;;;;-146.27;50.49;80126.94;5048701;28;20086;-66
2023/09/15 10:10:41;;;;;;;11.43;6.95;;;;;;;-146.27;53.32;80012.50;5052646;28;20055;-66
2023/09/15 10:13:08;;;;;;;11.40;7.35;;;;;;;-146.27;51.29;79978.38;5050046;28;20473;-66
2023/09/15 10:15:35;;;;;;;10.65;7.32;;;;;;;-146.27;50.35;80010.47;5051235;28;20515;-67
2023/09/15 10:18:04;;;;;;;11.23;6.63;;;;;;;-146.27;49.88;79892.03;5034854;28;20102;-66
2023/09/15 10:20:30;;;;;;;11.32;7.63;;;;;;;-146.27;47.98;79890.03;5052695;28;20052;-66
2023/09/15 10:22:56;;;;;;;8.75;7.18;;;;;;;-146.27;48.11;79920.13;5045658;28;20063;-66
2023/09/15 10:25:22;;;;;;;9.43;6.85;;;;;;;-146.27;50.89;79813.75;5056180;28;20032;-66
2023/09/15 10:27:47;;;;;;;11.98;6.85;;;;;;;-146.27;47.83;79727.41;5052660;28;20510;-66
2023/09/15 10:30:13;;;;;;;12.75;7.55;;;;;;;-146.27;46.61;79749.50;5044621;28;20029;-66
2023/09/15 10:32:39;;;;;;;11.27;6.80;;;;;;;-146.27;47.79;79773.59;5036440;28;20036;-65
2023/09/15 10:35:06;;;;;;;13.93;6.85;;;;;;;-146.27;45.56;79773.59;5052211;28;20473;-66
2023/09/15 10:37:33;;;;;;;9.98;6.70;;;;;;;-146.27;46.04;79683.25;5036018;28;20041;-67
2023/09/15 10:39:59;;;;;;;9.43;6.82;;;;;;;-146.27;44.96;79552.78;5032628;28;20048;-66
2023/09/15 10:42:26;;;;;;;11.07;7.32;;;;;;;-146.27;45.81;79530.69;5035336;28;20079;-66
2023/09/15 10:44:51;;;;;;;9.48;6.20;;;;;;;-146.27;47.46;79462.44;5051999;28;20052;-66
2023/09/15 10:47:17;;;;;;;10.77;6.57;;;;;;;-146.27;45.82;79534.72;5051931;28;20064;-66
2023/09/15 10:49:53;;;;;;;8.75;6.97;;;;;;;-146.27;44.05;79380.16;5051481;28;20477;-66
2023/09/15 10:52:35;;;;;;;9.05;7.00;;;;;;;-146.27;42.94;79301.84;5040162;28;20543;-66
2023/09/15 10:55:01;;;;;;;12.20;6.85;;;;;;;-146.27;44.11;79350.03;5049708;28;20020;-65
2023/09/15 10:57:27;;;;;;;10.43;7.05;;;;;;;-146.27;43.48;79195.47;5051936;28;20029;-66
2023/09/15 10:59:54;;;;;;;10.10;6.80;;;;;;;-146.27;42.10;79267.72;5053941;28;20111;-67
2023/09/15 11:02:20;;;;;;;15.10;7.50;;;;;;;-146.27;41.92;79303.88;5033977;28;20028;-68